Time;durP1;ratioP1;P1;durP2;ratioP2;P2;SDS_P1;SDS_P2;PMS_P1;PMS_P2;Temp;Humidity;BMP_temperature;BMP_pressure;BME280_temperature;BME280_humidity;BME280_pressure;Samples;Min_cycle;Max_cycle;Signal;HPM_P1;HPM_P2
2022/04/24 00:00:09;;;;;;;13.65;8.77;;;;;;;;;;5052441;28;20462;-83
2022/04/24 00:02:37;;;;;;;17.10;8.80;;;;;;;;;;5066164;28;20048;-83
2022/04/24 00:05:04;;;;;;;14.50;8.55;;;;;;;;;;5068721;28;20369;-81
2022/04/24 00:07:31;;;;;;;11.45;8.43;;;;;;;;;;5069836;28;20503;-85
2022/04/24 00:09:57;;;;;;;12.38;7.95;;;;;;;;;;5068743;28;20043;-80
2022/04/24 00:12:23;;;;;;;10.77;7.55;;;;;;;;;;5067876;28;20040;-82
2022/04/24 00:14:49;;;;;;;12.77;8.63;;;;;;;;;;5051322;28;20127;-80
2022/04/24 00:17:16;;;;;;;10.73;7.32;;;;;;;;;;5069949;28;20496;-79
2022/04/24 00:19:43;;;;;;;11.07;8.10;;;;;;;;;;5069896;28;20119;-79
2022/04/24 00:22:09;;;;;;;10.88;7.97;;;;;;;;;;5069935;28;20086;-80
2022/04/24 00:24:35;;;;;;;15.55;8.13;;;;;;;;;;5069863;28;20111;-81
2022/04/24 00:27:01;;;;;;;13.77;7.85;;;;;;;;;;5069079;28;20044;-84
2022/04/24 00:29:27;;;;;;;13.63;7.88;;;;;;;;;;5068794;28;20044;-80
2022/04/24 00:31:54;;;;;;;12.27;7.90;;;;;;;;;;5069483;28;20445;-76
2022/04/24 00:34:20;;;;;;;14.57;8.27;;;;;;;;;;5070631;28;20045;-72
2022/04/24 00:36:46;;;;;;;13.00;8.00;;;;;;;;;;5070452;28;20040;-74
2022/04/24 00:39:12;;;;;;;11.55;7.43;;;;;;;;;;5073038;28;20036;-72
2022/04/24 00:41:49;;;;;;;13.45;7.80;;;;;;;;;;5053597;28;20488;-74
2022/04/24 00:44:16;;;;;;;10.90;7.65;;;;;;;;;;5069285;28;20589;-73
2022/04/24 00:46:51;;;;;;;11.60;8.25;;;;;;;;;;5068960;28;20033;-75
2022/04/24 00:49:18;;;;;;;11.10;7.80;;;;;;;;;;5069376;28;20492;-81
2022/04/24 00:51:44;;;;;;;10.80;7.60;;;;;;;;;;5070839;28;20043;-79
2022/04/24 00:54:11;;;;;;;11.38;7.82;;;;;;;;;;5069257;28;20036;-83
2022/04/24 00:56:37;;;;;;;10.77;7.25;;;;;;;;;;5051449;28;20036;-80
2022/04/24 00:59:05;;;;;;;12.30;7.95;;;;;;;;;;5052054;28;20119;-80
2022/04/24 01:01:32;;;;;;;10.20;7.38;;;;;;;;;;5068471;28;20462;-79
2022/04/24 01:04:02;;;;;;;11.63;7.82;;;;;;;;;;5038768;28;20045;-80
2022/04/24 01:06:30;;;;;;;11.02;7.70;;;;;;;;;;5052243;28;20072;-84
2022/04/24 01:08:56;;;;;;;10.25;7.35;;;;;;;;;;5068424;28;20033;-81
2022/04/24 01:11:22;;;;;;;10.02;6.90;;;;;;;;;;5066741;28;20048;-80
2022/04/24 01:13:48;;;;;;;11.10;7.38;;;;;;;;;;5068401;28;20125;-82
2022/04/24 01:16:14;;;;;;;10.82;7.28;;;;;;;;;;5051111;28;20040;-79
2022/04/24 01:18:41;;;;;;;11.07;7.55;;;;;;;;;;5050766;28;20044;-80
2022/04/24 01:21:08;;;;;;;10.73;6.82;;;;;;;;;;5069542;28;20086;-79
2022/04/24 01:23:34;;;;;;;10.68;7.55;;;;;;;;;;5066162;28;20032;-76
2022/04/24 01:26:00;;;;;;;11.02;7.18;;;;;;;;;;5069525;28;20041;-79
2022/04/24 01:28:26;;;;;;;11.32;7.28;;;;;;;;;;5068050;28;20614;-84
2022/04/24 01:30:52;;;;;;;12.00;7.00;;;;;;;;;;5069370;28;20392;-79
2022/04/24 01:33:18;;;;;;;11.20;7.30;;;;;;;;;;5069531;28;20137;-79
2022/04/24 01:35:44;;;;;;;11.23;8.00;;;;;;;;;;5054447;28;20032;-79
2022/04/24 01:38:10;;;;;;;12.63;7.57;;;;;;;;;;5071421;28;20032;-81
2022/04/24 01:40:37;;;;;;;11.13;7.70;;;;;;;;;;5071128;28;20044;-79
2022/04/24 01:43:03;;;;;;;11.82;7.13;;;;;;;;;;5071839;28;20044;-78
2022/04/24 01:45:29;;;;;;;10.88;7.20;;;;;;;;;;5071176;28;20119;-75
2022/04/24 01:47:56;;;;;;;10.98;6.72;;;;;;;;;;5055224;28;20596;-78
2022/04/24 01:50:22;;;;;;;11.77;7.95;;;;;;;;;;5072297;28;20834;-78
2022/04/24 01:52:48;;;;;;;11.48;7.38;;;;;;;;;;5071805;28;20528;-78
2022/04/24 01:55:14;;;;;;;16.73;8.13;;;;;;;;;;5071738;28;20557;-78
2022/04/24 01:57:40;;;;;;;13.30;8.35;;;;;;;;;;5072267;28;20057;-77
2022/04/24 02:00:07;;;;;;;11.95;8.10;;;;;;;;;;5071236;28;20086;-78
2022/04/24 02:02:33;;;;;;;12.18;7.53;;;;;;;;;;5068981;28;20032;-78
2022/04/24 02:04:59;;;;;;;11.20;7.82;;;;;;;;;;5070033;28;20151;-75
2022/04/24 02:07:25;;;;;;;11.30;7.90;;;;;;;;;;5070447;28;20045;-76
2022/04/24 02:09:51;;;;;;;13.95;7.93;;;;;;;;;;5071212;28;20051;-78
2022/04/24 02:12:17;;;;;;;12.75;7.97;;;;;;;;;;5071286;28;20036;-78
2022/04/24 02:14:43;;;;;;;12.60;8.18;;;;;;;;;;5070589;28;20040;-78
2022/04/24 02:17:09;;;;;;;15.13;8.35;;;;;;;;;;5071285;28;20036;-78
2022/04/24 02:19:35;;;;;;;12.50;7.60;;;;;;;;;;5070769;28;20044;-79
2022/04/24 02:22:01;;;;;;;12.52;8.30;;;;;;;;;;5071849;28;20532;-79
2022/04/24 02:24:27;;;;;;;10.50;7.88;;;;;;;;;;5071543;28;20504;-79
2022/04/24 02:26:54;;;;;;;12.77;8.32;;;;;;;;;;5070311;28;20037;-80
2022/04/24 02:29:20;;;;;;;13.90;8.75;;;;;;;;;;5071476;28;20040;-79
2022/04/24 02:31:46;;;;;;;11.68;8.20;;;;;;;;;;5071691;28;20047;-78
2022/04/24 02:34:12;;;;;;;12.75;7.85;;;;;;;;;;5072091;28;20032;-78
2022/04/24 02:36:38;;;;;;;11.10;7.80;;;;;;;;;;5070260;28;20036;-75
2022/04/24 02:39:04;;;;;;;12.38;7.88;;;;;;;;;;5070535;28;20040;-79
2022/04/24 02:41:31;;;;;;;11.57;7.55;;;;;;;;;;5070073;28;20039;-78
2022/04/24 02:43:57;;;;;;;12.93;8.05;;;;;;;;;;5070215;28;20036;-75
2022/04/24 02:46:23;;;;;;;12.57;8.10;;;;;;;;;;5068806;28;20331;-78
2022/04/24 02:48:49;;;;;;;11.10;7.90;;;;;;;;;;5071582;28;20552;-78
2022/04/24 02:51:15;;;;;;;14.75;8.45;;;;;;;;;;5069810;28;20047;-78
2022/04/24 02:53:42;;;;;;;11.65;8.10;;;;;;;;;;5070331;28;20048;-76
2022/04/24 02:56:08;;;;;;;10.80;7.53;;;;;;;;;;5036749;28;20512;-78
2022/04/24 02:58:34;;;;;;;13.05;8.40;;;;;;;;;;5070880;28;20052;-74
2022/04/24 03:01:00;;;;;;;12.95;8.02;;;;;;;;;;5070308;28;20495;-75
2022/04/24 03:03:26;;;;;;;12.02;8.30;;;;;;;;;;5069833;28;20033;-78
2022/04/24 03:05:52;;;;;;;11.50;8.30;;;;;;;;;;5036898;28;20032;-77
2022/04/24 03:08:19;;;;;;;12.88;8.40;;;;;;;;;;5070052;28;20441;-75
2022/04/24 03:10:45;;;;;;;15.73;9.20;;;;;;;;;;5070398;28;20062;-78
2022/04/24 03:13:12;;;;;;;10.68;7.57;;;;;;;;;;5069936;28;20048;-77
2022/04/24 03:15:39;;;;;;;12.55;8.30;;;;;;;;;;5069242;28;20089;-78
2022/04/24 03:18:05;;;;;;;14.48;8.52;;;;;;;;;;5069994;28;20526;-78
2022/04/24 03:20:31;;;;;;;14.15;8.60;;;;;;;;;;5052655;28;20051;-78
2022/04/24 03:22:58;;;;;;;11.27;8.10;;;;;;;;;;5052884;28;20606;-78
2022/04/24 03:25:24;;;;;;;12.45;8.35;;;;;;;;;;5070776;28;20071;-78
2022/04/24 03:27:50;;;;;;;13.38;8.68;;;;;;;;;;5053039;28;20037;-77
2022/04/24 03:30:16;;;;;;;12.60;8.35;;;;;;;;;;5036472;28;20044;-77
2022/04/24 03:32:42;;;;;;;14.13;8.65;;;;;;;;;;5052932;28;20055;-77
2022/04/24 03:35:10;;;;;;;12.40;8.23;;;;;;;;;;5070983;28;20038;-79
2022/04/24 03:37:38;;;;;;;12.65;7.97;;;;;;;;;;5069265;28;20036;-78
2022/04/24 03:40:04;;;;;;;13.95;8.85;;;;;;;;;;5069871;28;20066;-78
2022/04/24 03:42:30;;;;;;;13.25;8.68;;;;;;;;;;5068859;28;20040;-80
2022/04/24 03:44:57;;;;;;;13.85;9.07;;;;;;;;;;5070228;28;20476;-80
2022/04/24 03:47:23;;;;;;;11.07;8.05;;;;;;;;;;5069717;28;20040;-81
2022/04/24 03:49:50;;;;;;;13.95;9.02;;;;;;;;;;5070452;28;20043;-82
2022/04/24 03:52:16;;;;;;;11.93;8.70;;;;;;;;;;5070649;28;20048;-79
2022/04/24 03:54:43;;;;;;;12.68;8.23;;;;;;;;;;5069253;28;20047;-79
2022/04/24 03:57:09;;;;;;;13.50;8.95;;;;;;;;;;5052398;28;20552;-79
2022/04/24 03:59:35;;;;;;;13.50;8.65;;;;;;;;;;5070351;28;20048;-79
2022/04/24 04:02:02;;;;;;;12.70;8.48;;;;;;;;;;5065153;28;20123;-81
2022/04/24 04:04:28;;;;;;;13.15;8.38;;;;;;;;;;5068741;28;20515;-79
2022/04/24 04:06:54;;;;;;;13.32;8.35;;;;;;;;;;5069507;28;20033;-79
2022/04/24 04:09:20;;;;;;;12.05;8.70;;;;;;;;;;5068793;28;20045;-78
2022/04/24 04:11:46;;;;;;;13.55;8.68;;;;;;;;;;5068623;28;20507;-77
2022/04/24 04:14:12;;;;;;;13.65;8.50;;;;;;;;;;5069177;28;20086;-77
2022/04/24 04:16:38;;;;;;;14.30;8.88;;;;;;;;;;5068447;28;20036;-77
2022/04/24 04:19:04;;;;;;;13.45;8.95;;;;;;;;;;5070715;28;20111;-75
2022/04/24 04:21:31;;;;;;;13.68;9.07;;;;;;;;;;5051880;28;20036;-84
2022/04/24 04:23:57;;;;;;;12.30;8.82;;;;;;;;;;5069892;28;20064;-78
2022/04/24 04:26:23;;;;;;;12.70;8.88;;;;;;;;;;5068358;28;20119;-74
2022/04/24 04:28:50;;;;;;;14.65;8.30;;;;;;;;;;5068985;28;20047;-78
2022/04/24 04:31:17;;;;;;;14.35;8.60;;;;;;;;;;5070536;28;20048;-76
2022/04/24 04:33:43;;;;;;;12.50;8.52;;;;;;;;;;5049884;28;20047;-75
2022/04/24 04:36:09;;;;;;;13.85;8.52;;;;;;;;;;5068903;28;20040;-78
2022/04/24 04:38:36;;;;;;;14.68;9.23;;;;;;;;;;5068897;28;20396;-76
2022/04/24 04:41:03;;;;;;;13.07;8.95;;;;;;;;;;5069922;28;20080;-75
2022/04/24 04:43:30;;;;;;;12.57;8.88;;;;;;;;;;5069627;28;20048;-79
2022/04/24 04:45:56;;;;;;;13.63;9.02;;;;;;;;;;5069686;28;20476;-74
2022/04/24 04:48:22;;;;;;;11.07;7.93;;;;;;;;;;5068043;28;20036;-75
2022/04/24 04:50:49;;;;;;;13.55;8.60;;;;;;;;;;5068757;28;20044;-81
2022/04/24 04:53:15;;;;;;;13.32;8.35;;;;;;;;;;5069708;28;20063;-79
2022/04/24 04:55:42;;;;;;;13.93;8.45;;;;;;;;;;5051429;28;20487;-82
2022/04/24 04:58:08;;;;;;;12.50;8.48;;;;;;;;;;5067889;28;20113;-79
2022/04/24 05:00:34;;;;;;;13.25;8.15;;;;;;;;;;5067948;28;20052;-79
2022/04/24 05:03:00;;;;;;;14.05;8.45;;;;;;;;;;5068753;28;20045;-79
2022/04/24 05:05:26;;;;;;;13.48;8.73;;;;;;;;;;5069937;28;20111;-80
2022/04/24 05:07:52;;;;;;;14.23;8.10;;;;;;;;;;5068885;28;20136;-80
2022/04/24 05:10:19;;;;;;;11.02;8.02;;;;;;;;;;5073951;28;20040;-79
2022/04/24 05:12:45;;;;;;;11.25;8.07;;;;;;;;;;5072347;28;20078;-82
2022/04/24 05:15:13;;;;;;;12.27;7.93;;;;;;;;;;5072876;28;20040;-83
2022/04/24 05:17:39;;;;;;;14.38;8.30;;;;;;;;;;5072402;28;20080;-79
2022/04/24 05:20:06;;;;;;;10.90;7.40;;;;;;;;;;5074565;28;20118;-79
2022/04/24 05:22:32;;;;;;;13.73;8.02;;;;;;;;;;5072220;28;20094;-77
2022/04/24 05:24:59;;;;;;;11.27;7.47;;;;;;;;;;5073509;28;20036;-75
2022/04/24 05:27:26;;;;;;;12.10;7.72;;;;;;;;;;5071734;28;20383;-74
2022/04/24 05:29:52;;;;;;;13.63;7.82;;;;;;;;;;5055407;28;20099;-76
2022/04/24 05:32:18;;;;;;;11.30;7.22;;;;;;;;;;5072103;28;20072;-75
2022/04/24 05:34:45;;;;;;;10.40;7.10;;;;;;;;;;5071823;28;20131;-75
2022/04/24 05:37:11;;;;;;;9.70;7.03;;;;;;;;;;5072731;28;20147;-79
2022/04/24 05:39:37;;;;;;;14.48;7.53;;;;;;;;;;5072890;28;20088;-76
2022/04/24 05:42:03;;;;;;;14.23;6.85;;;;;;;;;;5071823;28;20086;-77
2022/04/24 05:44:30;;;;;;;11.75;7.70;;;;;;;;;;5071014;28;20032;-80
2022/04/24 05:46:56;;;;;;;11.27;7.07;;;;;;;;;;5054626;28;20040;-84
2022/04/24 05:49:22;;;;;;;10.60;7.15;;;;;;;;;;5070884;28;20036;-79
2022/04/24 05:51:48;;;;;;;11.65;6.80;;;;;;;;;;5071399;28;20561;-79
2022/04/24 05:54:15;;;;;;;10.70;6.93;;;;;;;;;;5054451;28;20044;-83
2022/04/24 05:56:42;;;;;;;9.07;6.30;;;;;;;;;;5071201;28;20048;-79
2022/04/24 05:59:08;;;;;;;13.13;7.07;;;;;;;;;;5070667;28;20076;-84
2022/04/24 06:01:34;;;;;;;10.23;6.32;;;;;;;;;;5070835;28;20400;-81
2022/04/24 06:04:00;;;;;;;9.70;6.95;;;;;;;;;;5072875;28;20385;-78
2022/04/24 06:06:29;;;;;;;11.18;6.65;;;;;;;;;;5071475;28;20469;-77
2022/04/24 06:08:55;;;;;;;11.20;6.93;;;;;;;;;;5071046;28;20076;-73
2022/04/24 06:11:21;;;;;;;9.82;6.68;;;;;;;;;;5071173;28;20072;-75
2022/04/24 06:13:47;;;;;;;11.23;6.47;;;;;;;;;;5070704;28;20079;-76
2022/04/24 06:16:13;;;;;;;10.52;6.43;;;;;;;;;;5071236;28;20047;-74
2022/04/24 06:18:39;;;;;;;9.57;6.40;;;;;;;;;;5070544;28;20072;-78
2022/04/24 06:21:06;;;;;;;9.30;6.70;;;;;;;;;;5070946;28;20048;-77
2022/04/24 06:23:32;;;;;;;10.15;6.38;;;;;;;;;;5054168;28;20044;-79
2022/04/24 06:25:58;;;;;;;13.10;7.07;;;;;;;;;;5071757;28;20147;-74
2022/04/24 06:28:24;;;;;;;10.23;6.32;;;;;;;;;;5070501;28;20437;-74
2022/04/24 06:30:51;;;;;;;12.20;6.63;;;;;;;;;;5072362;28;20109;-78
2022/04/24 06:33:17;;;;;;;10.90;6.30;;;;;;;;;;5071747;28;20044;-75
2022/04/24 06:35:47;;;;;;;7.68;5.85;;;;;;;;;;5070969;28;20090;-79
2022/04/24 06:38:13;;;;;;;8.88;5.70;;;;;;;;;;5070455;28;20064;-77
2022/04/24 06:40:39;;;;;;;9.93;6.10;;;;;;;;;;5070702;28;20450;-78
2022/04/24 06:43:06;;;;;;;8.02;5.70;;;;;;;;;;5070415;28;20089;-75
2022/04/24 06:45:33;;;;;;;7.88;5.75;;;;;;;;;;5070522;28;20572;-79
2022/04/24 06:48:10;;;;;;;8.90;6.07;;;;;;;;;;5070717;28;20032;-74
2022/04/24 06:50:40;;;;;;;9.10;5.85;;;;;;;;;;5069605;28;20042;-74
2022/04/24 06:53:07;;;;;;;10.77;5.65;;;;;;;;;;5070441;28;20072;-74
2022/04/24 06:55:34;;;;;;;7.93;5.95;;;;;;;;;;5069949;28;20036;-74
2022/04/24 06:58:01;;;;;;;9.23;6.20;;;;;;;;;;5070096;28;20056;-74
2022/04/24 07:00:28;;;;;;;8.63;6.13;;;;;;;;;;5069889;28;20546;-81
2022/04/24 07:02:54;;;;;;;7.60;5.63;;;;;;;;;;5070467;28;20040;-83
2022/04/24 07:05:22;;;;;;;8.90;5.90;;;;;;;;;;5071482;28;20812;-86
2022/04/24 07:07:48;;;;;;;7.70;5.82;;;;;;;;;;5069665;28;20110;-81
2022/04/24 07:10:14;;;;;;;7.45;5.85;;;;;;;;;;5071850;28;20048;-83
2022/04/24 07:12:44;;;;;;;9.82;6.18;;;;;;;;;;5054030;28;20056;-79
2022/04/24 07:15:10;;;;;;;9.90;6.45;;;;;;;;;;5070803;28;20052;-85
2022/04/24 07:17:36;;;;;;;8.20;5.63;;;;;;;;;;5070283;28;20040;-77
2022/04/24 07:20:03;;;;;;;8.10;5.65;;;;;;;;;;5069952;28;20123;-75
2022/04/24 07:22:29;;;;;;;8.32;6.00;;;;;;;;;;5069702;28;20079;-84
2022/04/24 07:24:55;;;;;;;8.38;5.90;;;;;;;;;;5069787;28;20441;-83
2022/04/24 07:27:21;;;;;;;9.38;5.60;;;;;;;;;;5069366;28;20055;-74
2022/04/24 07:29:47;;;;;;;9.38;6.03;;;;;;;;;;5069134;28;20040;-79
2022/04/24 07:32:13;;;;;;;7.00;5.63;;;;;;;;;;5069147;28;20444;-74
2022/04/24 07:34:39;;;;;;;8.48;5.30;;;;;;;;;;5068956;28;20056;-79
2022/04/24 07:37:06;;;;;;;9.77;5.70;;;;;;;;;;5070678;28;20480;-73
2022/04/24 07:39:32;;;;;;;7.70;5.65;;;;;;;;;;5069248;28;20458;-76
2022/04/24 07:41:58;;;;;;;11.77;5.75;;;;;;;;;;5069386;28;20045;-77
2022/04/24 07:44:24;;;;;;;9.30;5.60;;;;;;;;;;5068654;28;20048;-75
2022/04/24 07:46:52;;;;;;;7.43;5.10;;;;;;;;;;5070167;28;20145;-74
2022/04/24 07:49:18;;;;;;;7.57;5.30;;;;;;;;;;5052717;28;20114;-75
2022/04/24 07:51:44;;;;;;;10.25;5.72;;;;;;;;;;5070450;28;20287;-76
2022/04/24 07:54:10;;;;;;;9.38;5.20;;;;;;;;;;5052693;28;20040;-77
2022/04/24 07:56:36;;;;;;;8.15;5.07;;;;;;;;;;5070227;28;20101;-74
2022/04/24 07:59:02;;;;;;;8.25;5.40;;;;;;;;;;5052477;28;20095;-77
2022/04/24 08:01:28;;;;;;;6.85;5.30;;;;;;;;;;5068607;28;20049;-74
2022/04/24 08:03:55;;;;;;;8.60;5.05;;;;;;;;;;5068915;28;20047;-77
2022/04/24 08:06:21;;;;;;;7.80;5.20;;;;;;;;;;5035470;28;20489;-74
2022/04/24 08:08:47;;;;;;;7.25;5.55;;;;;;;;;;5069104;28;20036;-82
2022/04/24 08:11:13;;;;;;;8.00;4.93;;;;;;;;;;5070750;28;20055;-82
2022/04/24 08:13:39;;;;;;;8.25;4.90;;;;;;;;;;5077759;28;20040;-78
2022/04/24 08:16:05;;;;;;;8.38;4.60;;;;;;;;;;5086628;28;20047;-81
2022/04/24 08:18:31;;;;;;;7.28;4.40;;;;;;;;;;5083103;28;20106;-84
2022/04/24 08:20:57;;;;;;;6.30;3.88;;;;;;;;;;5084411;28;20044;-78
2022/04/24 08:23:25;;;;;;;7.38;3.85;;;;;;;;;;5083212;28;20096;-85
2022/04/24 08:25:52;;;;;;;6.35;4.18;;;;;;;;;;5082523;28;20041;-84
2022/04/24 08:28:18;;;;;;;6.32;3.72;;;;;;;;;;5082307;28;20040;-81
2022/04/24 08:30:46;;;;;;;5.45;3.80;;;;;;;;;;5070499;28;20048;-75
2022/04/24 08:33:12;;;;;;;6.88;3.30;;;;;;;;;;5068637;28;20062;-77
2022/04/24 08:35:39;;;;;;;5.30;3.60;;;;;;;;;;5068508;28;20036;-76
2022/04/24 08:38:05;;;;;;;7.60;3.30;;;;;;;;;;5069029;28;20090;-78
2022/04/24 08:40:31;;;;;;;6.05;2.88;;;;;;;;;;5051659;28;20049;-74
2022/04/24 08:42:58;;;;;;;4.18;2.80;;;;;;;;;;5070593;28;20040;-77
2022/04/24 08:45:28;;;;;;;3.97;2.78;;;;;;;;;;5073612;28;20036;-74
2022/04/24 08:47:55;;;;;;;3.75;2.53;;;;;;;;;;5073065;28;20044;-76
2022/04/24 08:50:21;;;;;;;4.50;2.47;;;;;;;;;;5073659;28;20040;-75
2022/04/24 08:52:48;;;;;;;5.18;2.70;;;;;;;;;;5073638;28;20040;-73
2022/04/24 08:55:15;;;;;;;5.28;2.47;;;;;;;;;;5073814;28;20044;-73
2022/04/24 08:57:41;;;;;;;4.70;2.22;;;;;;;;;;5071972;28;20036;-73
2022/04/24 09:00:08;;;;;;;4.20;2.40;;;;;;;;;;5072671;28;20093;-75
2022/04/24 09:02:35;;;;;;;3.08;2.10;;;;;;;;;;5055262;28;20124;-74
2022/04/24 09:05:03;;;;;;;3.78;2.08;;;;;;;;;;5055863;28;20502;-75
2022/04/24 09:07:33;;;;;;;3.38;2.20;;;;;;;;;;5072059;28;20044;-75
2022/04/24 09:10:03;;;;;;;4.03;2.08;;;;;;;;;;5072093;28;20044;-74
2022/04/24 09:12:29;;;;;;;4.72;2.10;;;;;;;;;;5073235;28;20476;-74
2022/04/24 09:14:56;;;;;;;3.47;2.10;;;;;;;;;;5072106;28;20051;-74
2022/04/24 09:17:24;;;;;;;4.15;2.00;;;;;;;;;;5055364;28;20041;-73
2022/04/24 09:19:50;;;;;;;4.28;2.38;;;;;;;;;;5072602;28;20036;-76
2022/04/24 09:22:17;;;;;;;3.72;2.22;;;;;;;;;;5072808;28;20040;-72
2022/04/24 09:24:45;;;;;;;4.72;2.30;;;;;;;;;;5071534;28;20060;-72
2022/04/24 09:27:12;;;;;;;3.42;2.13;;;;;;;;;;5072259;28;20499;-77
2022/04/24 09:29:40;;;;;;;3.88;2.15;;;;;;;;;;5072883;28;20033;-74
2022/04/24 09:32:11;;;;;;;4.18;2.35;;;;;;;;;;5072096;28;20492;-80
2022/04/24 09:34:39;;;;;;;6.50;2.30;;;;;;;;;;5073246;28;20061;-77
2022/04/24 09:37:07;;;;;;;4.45;2.15;;;;;;;;;;5073306;28;20044;-81
2022/04/24 09:39:33;;;;;;;6.10;2.55;;;;;;;;;;5072592;28;20072;-78
2022/04/24 09:42:03;;;;;;;5.82;2.80;;;;;;;;;;5071375;28;20040;-76
2022/04/24 09:44:37;;;;;;;6.57;2.47;;;;;;;;;;5071127;28;20090;-72
2022/04/24 09:47:03;;;;;;;5.05;2.60;;;;;;;;;;5071856;28;20472;-74
2022/04/24 09:49:33;;;;;;;5.15;2.60;;;;;;;;;;5072775;28;20542;-76
2022/04/24 09:52:00;;;;;;;4.65;2.20;;;;;;;;;;5071112;28;20189;-74
2022/04/24 09:54:27;;;;;;;4.07;2.33;;;;;;;;;;5071602;28;20043;-72
2022/04/24 09:56:53;;;;;;;3.75;2.28;;;;;;;;;;5072525;28;20028;-72
2022/04/24 09:59:20;;;;;;;6.25;2.60;;;;;;;;;;5071892;28;20060;-75
2022/04/24 10:01:46;;;;;;;4.07;2.60;;;;;;;;;;5071735;28;20056;-72
2022/04/24 10:04:12;;;;;;;4.15;2.30;;;;;;;;;;5070379;28;20048;-76
2022/04/24 10:06:40;;;;;;;4.45;2.45;;;;;;;;;;5071143;28;20078;-76
2022/04/24 10:09:07;;;;;;;4.90;2.60;;;;;;;;;;5071282;28;20048;-74
2022/04/24 10:11:33;;;;;;;4.15;2.33;;;;;;;;;;5071929;28;20041;-73
2022/04/24 10:14:03;;;;;;;4.53;2.45;;;;;;;;;;5054306;28;20047;-71
2022/04/24 10:16:41;;;;;;;4.28;2.47;;;;;;;;;;5070636;28;20037;-74
2022/04/24 10:19:13;;;;;;;6.28;2.70;;;;;;;;;;5068792;28;20040;-75
2022/04/24 10:21:52;;;;;;;4.65;2.13;;;;;;;;;;5070350;28;20051;-78
2022/04/24 10:24:18;;;;;;;4.88;2.60;;;;;;;;;;5070739;28;20480;-81
2022/04/24 10:26:55;;;;;;;5.38;2.80;;;;;;;;;;5070341;28;20034;-83
2022/04/24 10:29:21;;;;;;;5.85;2.45;;;;;;;;;;5072147;28;20080;-81
2022/04/24 10:31:49;;;;;;;5.13;2.72;;;;;;;;;;5071577;28;20047;-82
2022/04/24 10:34:18;;;;;;;6.40;2.25;;;;;;;;;;5070710;28;20047;-79
2022/04/24 10:36:57;;;;;;;4.90;2.40;;;;;;;;;;5070560;28;20120;-83
2022/04/24 10:39:24;;;;;;;6.28;2.40;;;;;;;;;;5053939;28;20055;-84
2022/04/24 10:41:57;;;;;;;6.57;2.15;;;;;;;;;;5070428;28;20037;-82
2022/04/24 10:44:24;;;;;;;9.77;2.22;;;;;;;;;;5068747;28;20055;-82
2022/04/24 10:46:51;;;;;;;4.18;2.40;;;;;;;;;;5071912;28;20050;-82
2022/04/24 10:49:18;;;;;;;7.10;2.70;;;;;;;;;;5070607;28;20036;-81
2022/04/24 10:51:45;;;;;;;3.05;1.80;;;;;;;;;;5071423;28;20051;-81
2022/04/24 10:54:13;;;;;;;4.03;1.83;;;;;;;;;;5070508;28;20119;-79
2022/04/24 10:56:49;;;;;;;5.55;1.90;;;;;;;;;;5071066;28;20119;-83
2022/04/24 10:59:18;;;;;;;5.50;2.10;;;;;;;;;;5053268;28;20271;-79
2022/04/24 11:01:46;;;;;;;4.07;1.50;;;;;;;;;;5069662;28;20044;-83
2022/04/24 11:04:14;;;;;;;5.32;1.77;;;;;;;;;;5070863;28;20044;-81
2022/04/24 11:06:51;;;;;;;8.75;2.42;;;;;;;;;;5069742;28;20443;-84
2022/04/24 11:09:19;;;;;;;8.77;2.60;;;;;;;;;;5068826;28;20072;-81
2022/04/24 11:11:52;;;;;;;4.97;2.10;;;;;;;;;;5069234;28;20061;-77
2022/04/24 11:14:22;;;;;;;7.72;2.17;;;;;;;;;;5069566;28;20051;-82
2022/04/24 11:16:51;;;;;;;6.22;2.08;;;;;;;;;;5070346;28;20040;-81
2022/04/24 11:19:25;;;;;;;4.68;1.95;;;;;;;;;;5069551;28;20044;-82
2022/04/24 11:21:58;;;;;;;5.45;1.90;;;;;;;;;;5069420;28;20045;-79
2022/04/24 11:24:29;;;;;;;7.40;2.47;;;;;;;;;;5070930;28;20037;-79
2022/04/24 11:27:08;;;;;;;6.28;2.50;;;;;;;;;;5144203;27;20567;-79
2022/04/24 11:29:35;;;;;;;4.70;2.33;;;;;;;;;;5127351;28;20051;-83
2022/04/24 11:32:02;;;;;;;4.20;2.00;;;;;;;;;;5126911;28;20061;-84
2022/04/24 11:34:29;;;;;;;7.28;2.40;;;;;;;;;;5109811;28;20053;-79
2022/04/24 11:36:56;;;;;;;3.10;1.90;;;;;;;;;;5126850;28;20043;-82
2022/04/24 11:39:22;;;;;;;4.18;1.80;;;;;;;;;;5109831;28;20483;-83
2022/04/24 11:41:51;;;;;;;4.78;1.73;;;;;;;;;;5125780;27;20047;-84
2022/04/24 11:52:36;;;;;;;6.13;2.05;;;;;;;;;;5125925;27;20040;-81
2022/04/24 11:55:06;;;;;;;3.72;1.92;;;;;;;;;;5126845;28;20035;-79
2022/04/24 11:57:33;;;;;;;2.78;1.60;;;;;;;;;;5126230;27;20482;-76
2022/04/24 11:59:59;;;;;;;4.45;1.60;;;;;;;;;;5128065;27;20132;-79
2022/04/24 12:02:26;;;;;;;3.50;1.90;;;;;;;;;;5126487;28;20035;-75
2022/04/24 12:04:53;;;;;;;3.47;1.95;;;;;;;;;;5126651;28;20471;-75
2022/04/24 12:07:19;;;;;;;7.15;1.90;;;;;;;;;;5126538;28;20084;-73
2022/04/24 12:09:45;;;;;;;2.88;1.67;;;;;;;;;;5108733;28;20036;-75
2022/04/24 12:12:13;;;;;;;3.97;1.92;;;;;;;;;;5125952;28;20303;-76
2022/04/24 12:14:39;;;;;;;6.57;2.38;;;;;;;;;;5125762;28;20039;-72
2022/04/24 12:17:10;;;;;;;4.50;1.80;;;;;;;;;;5108819;28;20034;-76
2022/04/24 12:19:37;;;;;;;3.33;2.00;;;;;;;;;;5125371;28;20134;-74
2022/04/24 12:22:07;;;;;;;3.30;1.70;;;;;;;;;;5125737;28;20044;-74
2022/04/24 12:24:41;;;;;;;3.28;1.95;;;;;;;;;;5125428;28;20509;-72
2022/04/24 12:27:09;;;;;;;6.65;1.90;;;;;;;;;;5126753;27;20047;-73
2022/04/24 12:29:39;;;;;;;7.05;2.05;;;;;;;;;;5109112;28;20043;-75
2022/04/24 12:32:06;;;;;;;4.47;2.13;;;;;;;;;;5125467;28;20069;-74
2022/04/24 12:34:59;;;;;;;6.22;2.00;;;;;;;;;;5125101;28;20043;-71
2022/04/24 12:37:29;;;;;;;5.63;1.80;;;;;;;;;;5114675;28;20040;-75
2022/04/24 12:39:55;;;;;;;3.70;1.80;;;;;;;;;;5112098;28;20046;-74
2022/04/24 12:42:22;;;;;;;5.88;2.10;;;;;;;;;;5111648;28;20059;-76
2022/04/24 12:44:50;;;;;;;4.65;2.35;;;;;;;;;;5111601;28;20078;-76
2022/04/24 12:47:16;;;;;;;5.53;2.10;;;;;;;;;;5111789;28;20050;-77
2022/04/24 12:49:45;;;;;;;5.70;2.00;;;;;;;;;;5111609;28;20085;-76
2022/04/24 12:52:12;;;;;;;5.97;2.33;;;;;;;;;;5112829;28;20479;-77
2022/04/24 12:54:38;;;;;;;3.75;2.30;;;;;;;;;;5111556;28;20055;-75
2022/04/24 12:57:08;;;;;;;5.05;3.00;;;;;;;;;;5111457;28;20043;-80
2022/04/24 12:59:34;;;;;;;6.60;2.75;;;;;;;;;;5111564;28;20042;-77
2022/04/24 13:02:01;;;;;;;6.85;2.80;;;;;;;;;;5111846;28;20047;-75
2022/04/24 13:04:27;;;;;;;5.15;2.70;;;;;;;;;;5094266;28;20497;-80
2022/04/24 13:06:54;;;;;;;6.97;2.72;;;;;;;;;;5112735;28;20193;-83
2022/04/24 13:09:20;;;;;;;6.75;2.70;;;;;;;;;;5111516;28;20043;-83
2022/04/24 13:11:46;;;;;;;4.30;2.40;;;;;;;;;;5093960;28;20422;-81
2022/04/24 13:14:12;;;;;;;4.32;2.78;;;;;;;;;;5112305;28;20116;-83
2022/04/24 13:19:24;;;;;;;7.72;3.13;;;;;;;;;;5112357;28;20507;-79
2022/04/24 13:21:52;;;;;;;5.63;3.50;;;;;;;;;;5110630;28;20040;-80
2022/04/24 13:24:18;;;;;;;5.70;3.40;;;;;;;;;;5110820;28;20059;-82
2022/04/24 13:26:44;;;;;;;7.93;3.40;;;;;;;;;;5110553;28;20055;-80
2022/04/24 13:29:10;;;;;;;7.20;3.40;;;;;;;;;;5111091;28;20069;-80
2022/04/24 13:31:36;;;;;;;8.43;3.25;;;;;;;;;;5110407;28;20035;-84
2022/04/24 13:34:02;;;;;;;5.50;3.50;;;;;;;;;;5093503;28;20035;-82
2022/04/24 13:36:29;;;;;;;6.05;3.40;;;;;;;;;;5110181;28;20074;-86
2022/04/24 13:38:55;;;;;;;7.00;3.10;;;;;;;;;;5110695;28;20101;-80
2022/04/24 13:41:21;;;;;;;6.85;3.80;;;;;;;;;;5110570;28;20122;-83
2022/04/24 13:43:48;;;;;;;4.97;3.00;;;;;;;;;;5110520;28;20039;-84
2022/04/24 13:46:14;;;;;;;5.38;3.38;;;;;;;;;;5093552;28;20051;-80
2022/04/24 13:48:41;;;;;;;5.88;3.58;;;;;;;;;;5092217;28;20040;-80
2022/04/24 13:51:07;;;;;;;6.40;3.38;;;;;;;;;;5111751;28;20483;-80
2022/04/24 13:53:33;;;;;;;8.90;3.50;;;;;;;;;;5110399;28;20540;-75
2022/04/24 13:56:00;;;;;;;5.85;2.97;;;;;;;;;;5110688;28;20100;-76
2022/04/24 13:58:26;;;;;;;9.02;3.15;;;;;;;;;;5094025;28;20047;-73
2022/04/24 14:00:54;;;;;;;6.25;3.20;;;;;;;;;;5093592;28;20043;-77
2022/04/24 14:03:20;;;;;;;6.00;3.08;;;;;;;;;;5093517;28;20052;-77
2022/04/24 14:05:48;;;;;;;7.13;3.28;;;;;;;;;;5109663;28;20080;-75
2022/04/24 14:08:15;;;;;;;10.25;3.58;;;;;;;;;;5110417;28;20452;-77
2022/04/24 14:10:44;;;;;;;6.47;3.30;;;;;;;;;;5109791;28;20120;-76
2022/04/24 14:13:10;;;;;;;5.15;3.33;;;;;;;;;;5110134;28;20031;-79
2022/04/24 14:15:37;;;;;;;12.77;3.83;;;;;;;;;;5109792;28;20031;-76
2022/04/24 14:18:03;;;;;;;7.53;3.55;;;;;;;;;;5110008;28;20139;-79
2022/04/24 14:20:29;;;;;;;6.78;3.30;;;;;;;;;;5109839;28;20042;-76
2022/04/24 14:22:57;;;;;;;6.03;3.33;;;;;;;;;;5092869;28;20074;-76
2022/04/24 14:25:23;;;;;;;6.75;3.45;;;;;;;;;;5110661;28;20047;-76
2022/04/24 14:27:49;;;;;;;6.40;3.40;;;;;;;;;;5109363;28;20050;-78
2022/04/24 14:30:15;;;;;;;9.35;3.40;;;;;;;;;;5111119;28;20040;-74
2022/04/24 14:32:42;;;;;;;8.93;3.45;;;;;;;;;;5109649;28;20043;-77
2022/04/24 14:35:09;;;;;;;7.00;3.40;;;;;;;;;;5092577;28;20035;-77
2022/04/24 14:37:35;;;;;;;4.65;3.00;;;;;;;;;;5109665;28;20035;-80
2022/04/24 14:40:03;;;;;;;5.38;3.20;;;;;;;;;;5109701;28;20118;-77
2022/04/24 14:42:33;;;;;;;5.13;3.38;;;;;;;;;;5109474;28;20078;-77
2022/04/24 14:44:59;;;;;;;7.10;3.53;;;;;;;;;;5109396;28;20051;-77
2022/04/24 14:55:44;;;;;;;5.72;3.17;;;;;;;;;;5107273;28;20043;-74